sensor_id;sensor_type;location;lat;lon;timestamp;P1;durP1;ratioP1;P2;durP2;ratioP2
39782;SDS011;25462;51.164;17.100;2022-08-25T00:00:42;15.60;;;11.60;;
39782;SDS011;25462;51.164;17.100;2022-08-25T00:05:46;17.60;;;10.70;;
39782;SDS011;25462;51.164;17.100;2022-08-25T00:10:49;12.20;;;10.80;;
39782;SDS011;25462;51.164;17.100;2022-08-25T00:16:04;11.80;;;10.70;;
39782;SDS011;25462;51.164;17.100;2022-08-25T00:21:06;14.10;;;11.50;;
39782;SDS011;25462;51.164;17.100;2022-08-25T00:26:09;11.90;;;10.80;;
39782;SDS011;25462;51.164;17.100;2022-08-25T00:31:17;16.30;;;14.60;;
39782;SDS011;25462;51.164;17.100;2022-08-25T00:36:24;15.50;;;14.10;;
39782;SDS011;25462;51.164;17.100;2022-08-25T00:41:26;15.60;;;14.20;;
39782;SDS011;25462;51.164;17.100;2022-08-25T00:46:30;14.80;;;13.40;;
39782;SDS011;25462;51.164;17.100;2022-08-25T00:51:46;13.50;;;12.20;;
39782;SDS011;25462;51.164;17.100;2022-08-25T00:56:51;16.70;;;13.80;;
39782;SDS011;25462;51.164;17.100;2022-08-25T01:01:56;15.70;;;12.80;;
39782;SDS011;25462;51.164;17.100;2022-08-25T01:06:59;18.30;;;14.80;;
39782;SDS011;25462;51.164;17.100;2022-08-25T01:12:02;18.00;;;14.40;;
39782;SDS011;25462;51.164;17.100;2022-08-25T01:17:05;17.80;;;13.80;;
39782;SDS011;25462;51.164;17.100;2022-08-25T01:22:09;18.50;;;14.60;;
39782;SDS011;25462;51.164;17.100;2022-08-25T01:27:12;17.10;;;15.30;;
39782;SDS011;25462;51.164;17.100;2022-08-25T01:32:14;14.80;;;13.10;;
39782;SDS011;25462;51.164;17.100;2022-08-25T01:37:16;14.80;;;13.30;;
39782;SDS011;25462;51.164;17.100;2022-08-25T01:42:41;20.70;;;16.00;;
39782;SDS011;25462;51.164;17.100;2022-08-25T01:47:47;18.20;;;15.60;;
39782;SDS011;25462;51.164;17.100;2022-08-25T01:52:53;24.10;;;15.50;;
39782;SDS011;25462;51.164;17.100;2022-08-25T01:57:57;18.00;;;15.90;;
39782;SDS011;25462;51.164;17.100;2022-08-25T02:02:59;35.80;;;11.90;;
39782;SDS011;25462;51.164;17.100;2022-08-25T02:13:04;18.10;;;14.10;;
39782;SDS011;25462;51.164;17.100;2022-08-25T02:18:09;19.60;;;12.60;;
39782;SDS011;25462;51.164;17.100;2022-08-25T02:23:12;58.30;;;13.70;;
39782;SDS011;25462;51.164;17.100;2022-08-25T02:28:14;30.70;;;11.60;;
39782;SDS011;25462;51.164;17.100;2022-08-25T02:33:19;71.50;;;14.10;;
39782;SDS011;25462;51.164;17.100;2022-08-25T02:38:21;62.70;;;11.70;;
39782;SDS011;25462;51.164;17.100;2022-08-25T02:43:24;58.90;;;10.60;;
39782;SDS011;25462;51.164;17.100;2022-08-25T02:48:26;12.40;;;9.60;;
39782;SDS011;25462;51.164;17.100;2022-08-25T02:53:29;14.90;;;8.80;;
39782;SDS011;25462;51.164;17.100;2022-08-25T02:58:31;25.10;;;9.40;;
39782;SDS011;25462;51.164;17.100;2022-08-25T03:03:33;18.40;;;9.30;;
39782;SDS011;25462;51.164;17.100;2022-08-25T03:08:41;15.20;;;9.00;;
39782;SDS011;25462;51.164;17.100;2022-08-25T03:13:43;10.50;;;9.40;;
39782;SDS011;25462;51.164;17.100;2022-08-25T03:18:45;17.90;;;8.60;;
39782;SDS011;25462;51.164;17.100;2022-08-25T03:23:49;10.10;;;9.20;;
39782;SDS011;25462;51.164;17.100;2022-08-25T03:28:52;14.80;;;8.40;;
39782;SDS011;25462;51.164;17.100;2022-08-25T03:39:06;10.20;;;8.80;;
39782;SDS011;25462;51.164;17.100;2022-08-25T03:44:09;9.70;;;9.00;;
39782;SDS011;25462;51.164;17.100;2022-08-25T03:49:15;13.00;;;9.70;;
39782;SDS011;25462;51.164;17.100;2022-08-25T03:54:21;9.50;;;8.70;;
39782;SDS011;25462;51.164;17.100;2022-08-25T03:59:25;9.90;;;8.90;;
39782;SDS011;25462;51.164;17.100;2022-08-25T04:09:29;45.80;;;9.70;;
39782;SDS011;25462;51.164;17.100;2022-08-25T04:14:38;15.80;;;9.40;;
39782;SDS011;25462;51.164;17.100;2022-08-25T04:24:42;9.00;;;8.10;;
39782;SDS011;25462;51.164;17.100;2022-08-25T04:29:45;28.90;;;13.80;;
39782;SDS011;25462;51.164;17.100;2022-08-25T04:34:50;35.30;;;12.50;;
39782;SDS011;25462;51.164;17.100;2022-08-25T04:39:57;43.50;;;15.60;;
39782;SDS011;25462;51.164;17.100;2022-08-25T04:44:59;28.70;;;14.40;;
39782;SDS011;25462;51.164;17.100;2022-08-25T04:50:02;45.40;;;13.70;;
39782;SDS011;25462;51.164;17.100;2022-08-25T04:55:05;79.60;;;15.30;;
39782;SDS011;25462;51.164;17.100;2022-08-25T05:00:08;43.10;;;13.10;;
39782;SDS011;25462;51.164;17.100;2022-08-25T05:05:12;37.40;;;12.10;;
39782;SDS011;25462;51.164;17.100;2022-08-25T05:10:14;22.50;;;9.50;;
39782;SDS011;25462;51.164;17.100;2022-08-25T05:15:25;24.40;;;8.20;;
39782;SDS011;25462;51.164;17.100;2022-08-25T05:20:50;18.00;;;10.10;;
39782;SDS011;25462;51.164;17.100;2022-08-25T05:26:03;18.70;;;9.70;;
39782;SDS011;25462;51.164;17.100;2022-08-25T05:31:09;11.10;;;9.40;;
39782;SDS011;25462;51.164;17.100;2022-08-25T05:36:12;11.40;;;9.10;;
39782;SDS011;25462;51.164;17.100;2022-08-25T05:41:16;10.90;;;9.70;;
39782;SDS011;25462;51.164;17.100;2022-08-25T05:46:20;12.90;;;11.10;;
39782;SDS011;25462;51.164;17.100;2022-08-25T05:51:22;11.60;;;10.60;;
39782;SDS011;25462;51.164;17.100;2022-08-25T05:56:25;15.80;;;10.70;;
39782;SDS011;25462;51.164;17.100;2022-08-25T06:01:27;13.30;;;11.40;;
39782;SDS011;25462;51.164;17.100;2022-08-25T06:06:48;20.80;;;11.70;;
39782;SDS011;25462;51.164;17.100;2022-08-25T06:12:07;20.30;;;12.10;;
39782;SDS011;25462;51.164;17.100;2022-08-25T06:17:10;20.60;;;13.30;;
39782;SDS011;25462;51.164;17.100;2022-08-25T06:22:12;13.30;;;11.90;;
39782;SDS011;25462;51.164;17.100;2022-08-25T06:27:14;14.30;;;12.10;;
39782;SDS011;25462;51.164;17.100;2022-08-25T06:37:18;12.90;;;11.70;;
39782;SDS011;25462;51.164;17.100;2022-08-25T06:42:29;14.40;;;11.60;;
39782;SDS011;25462;51.164;17.100;2022-08-25T06:47:34;12.80;;;11.50;;
39782;SDS011;25462;51.164;17.100;2022-08-25T06:52:36;13.80;;;11.60;;
39782;SDS011;25462;51.164;17.100;2022-08-25T06:57:40;14.70;;;13.00;;
39782;SDS011;25462;51.164;17.100;2022-08-25T07:02:43;15.60;;;13.70;;
39782;SDS011;25462;51.164;17.100;2022-08-25T07:07:48;18.50;;;15.40;;
39782;SDS011;25462;51.164;17.100;2022-08-25T07:12:51;18.70;;;16.80;;
39782;SDS011;25462;51.164;17.100;2022-08-25T07:17:56;20.10;;;18.00;;
39782;SDS011;25462;51.164;17.100;2022-08-25T07:22:58;16.90;;;15.10;;
39782;SDS011;25462;51.164;17.100;2022-08-25T07:28:02;20.20;;;16.50;;
39782;SDS011;25462;51.164;17.100;2022-08-25T07:33:05;20.50;;;15.90;;
39782;SDS011;25462;51.164;17.100;2022-08-25T07:38:10;14.60;;;11.80;;
39782;SDS011;25462;51.164;17.100;2022-08-25T07:43:21;12.60;;;11.40;;
39782;SDS011;25462;51.164;17.100;2022-08-25T07:48:23;15.40;;;13.20;;
39782;SDS011;25462;51.164;17.100;2022-08-25T07:53:25;14.90;;;13.20;;
39782;SDS011;25462;51.164;17.100;2022-08-25T07:58:28;19.40;;;14.00;;
39782;SDS011;25462;51.164;17.100;2022-08-25T08:03:30;17.40;;;12.90;;
39782;SDS011;25462;51.164;17.100;2022-08-25T08:08:52;17.20;;;14.10;;
39782;SDS011;25462;51.164;17.100;2022-08-25T08:13:59;19.20;;;15.20;;
39782;SDS011;25462;51.164;17.100;2022-08-25T08:19:02;22.70;;;16.70;;
39782;SDS011;25462;51.164;17.100;2022-08-25T08:24:09;18.80;;;13.60;;
39782;SDS011;25462;51.164;17.100;2022-08-25T08:29:32;14.60;;;9.20;;
39782;SDS011;25462;51.164;17.100;2022-08-25T08:34:36;15.60;;;9.30;;
39782;SDS011;25462;51.164;17.100;2022-08-25T08:39:38;13.90;;;8.50;;
39782;SDS011;25462;51.164;17.100;2022-08-25T08:50:05;17.00;;;6.20;;
39782;SDS011;25462;51.164;17.100;2022-08-25T09:00:54;10.10;;;5.00;;
39782;SDS011;25462;51.164;17.100;2022-08-25T09:06:04;12.20;;;5.40;;
39782;SDS011;25462;51.164;17.100;2022-08-25T09:16:53;14.70;;;5.40;;
39782;SDS011;25462;51.164;17.100;2022-08-25T09:22:14;9.80;;;4.00;;
39782;SDS011;25462;51.164;17.100;2022-08-25T09:27:50;10.80;;;3.90;;
39782;SDS011;25462;51.164;17.100;2022-08-25T09:32:57;12.00;;;4.20;;
39782;SDS011;25462;51.164;17.100;2022-08-25T09:38:07;12.10;;;5.00;;
39782;SDS011;25462;51.164;17.100;2022-08-25T09:48:41;12.10;;;4.20;;
39782;SDS011;25462;51.164;17.100;2022-08-25T09:53:58;15.20;;;4.30;;
39782;SDS011;25462;51.164;17.100;2022-08-25T09:59:31;14.20;;;4.00;;
39782;SDS011;25462;51.164;17.100;2022-08-25T10:04:59;19.20;;;4.90;;
39782;SDS011;25462;51.164;17.100;2022-08-25T10:10:29;14.00;;;4.80;;
39782;SDS011;25462;51.164;17.100;2022-08-25T10:15:43;16.80;;;5.30;;
39782;SDS011;25462;51.164;17.100;2022-08-25T10:20:59;18.70;;;4.80;;
39782;SDS011;25462;51.164;17.100;2022-08-25T10:26:12;11.10;;;4.90;;
39782;SDS011;25462;51.164;17.100;2022-08-25T10:31:24;14.50;;;4.80;;
39782;SDS011;25462;51.164;17.100;2022-08-25T10:42:19;14.30;;;4.90;;
39782;SDS011;25462;51.164;17.100;2022-08-25T10:53:03;17.80;;;4.80;;
39782;SDS011;25462;51.164;17.100;2022-08-25T10:58:14;16.00;;;5.30;;
39782;SDS011;25462;51.164;17.100;2022-08-25T11:03:37;19.30;;;5.00;;
39782;SDS011;25462;51.164;17.100;2022-08-25T11:08:59;26.40;;;5.90;;
39782;SDS011;25462;51.164;17.100;2022-08-25T11:14:10;15.40;;;5.40;;
39782;SDS011;25462;51.164;17.100;2022-08-25T11:24:47;13.70;;;5.20;;
39782;SDS011;25462;51.164;17.100;2022-08-25T11:30:00;17.30;;;5.40;;
39782;SDS011;25462;51.164;17.100;2022-08-25T11:35:11;11.80;;;4.70;;
39782;SDS011;25462;51.164;17.100;2022-08-25T11:40:19;20.70;;;5.80;;
39782;SDS011;25462;51.164;17.100;2022-08-25T11:56:07;23.40;;;5.90;;
39782;SDS011;25462;51.164;17.100;2022-08-25T12:18:49;22.90;;;6.10;;
39782;SDS011;25462;51.164;17.100;2022-08-25T12:24:17;24.00;;;5.40;;
39782;SDS011;25462;51.164;17.100;2022-08-25T12:29:33;19.50;;;6.20;;
39782;SDS011;25462;51.164;17.100;2022-08-25T12:40:35;29.20;;;6.30;;
39782;SDS011;25462;51.164;17.100;2022-08-25T12:45:41;28.40;;;5.60;;
39782;SDS011;25462;51.164;17.100;2022-08-25T12:50:47;22.70;;;5.10;;
39782;SDS011;25462;51.164;17.100;2022-08-25T13:01:40;23.30;;;4.70;;
39782;SDS011;25462;51.164;17.100;2022-08-25T13:12:40;23.90;;;5.70;;
39782;SDS011;25462;51.164;17.100;2022-08-25T13:17:54;23.90;;;5.70;;
39782;SDS011;25462;51.164;17.100;2022-08-25T13:22:59;22.50;;;5.30;;
39782;SDS011;25462;51.164;17.100;2022-08-25T13:28:04;15.80;;;4.70;;
39782;SDS011;25462;51.164;17.100;2022-08-25T13:33:20;30.30;;;5.60;;
39782;SDS011;25462;51.164;17.100;2022-08-25T13:38:23;27.50;;;6.40;;
39782;SDS011;25462;51.164;17.100;2022-08-25T13:43:27;27.10;;;5.30;;
39782;SDS011;25462;51.164;17.100;2022-08-25T13:48:32;25.30;;;5.30;;
39782;SDS011;25462;51.164;17.100;2022-08-25T13:53:36;21.90;;;4.70;;
39782;SDS011;25462;51.164;17.100;2022-08-25T13:58:40;20.80;;;5.20;;
39782;SDS011;25462;51.164;17.100;2022-08-25T14:03:48;18.00;;;4.90;;
39782;SDS011;25462;51.164;17.100;2022-08-25T14:14:00;17.60;;;4.00;;
39782;SDS011;25462;51.164;17.100;2022-08-25T14:19:11;25.60;;;6.30;;
39782;SDS011;25462;51.164;17.100;2022-08-25T14:24:21;30.50;;;6.10;;
39782;SDS011;25462;51.164;17.100;2022-08-25T14:29:26;30.10;;;6.60;;
39782;SDS011;25462;51.164;17.100;2022-08-25T14:34:37;29.10;;;6.10;;
39782;SDS011;25462;51.164;17.100;2022-08-25T14:39:42;30.00;;;6.50;;
39782;SDS011;25462;51.164;17.100;2022-08-25T14:44:45;25.50;;;5.10;;
39782;SDS011;25462;51.164;17.100;2022-08-25T14:49:48;22.10;;;6.40;;
39782;SDS011;25462;51.164;17.100;2022-08-25T14:54:52;28.70;;;6.80;;
39782;SDS011;25462;51.164;17.100;2022-08-25T14:59:55;22.60;;;5.90;;
39782;SDS011;25462;51.164;17.100;2022-08-25T15:05:01;25.30;;;6.40;;
39782;SDS011;25462;51.164;17.100;2022-08-25T15:10:06;19.60;;;5.20;;
39782;SDS011;25462;51.164;17.100;2022-08-25T15:15:18;23.90;;;5.80;;
39782;SDS011;25462;51.164;17.100;2022-08-25T15:20:22;18.10;;;5.60;;
39782;SDS011;25462;51.164;17.100;2022-08-25T15:25:25;29.70;;;6.90;;
39782;SDS011;25462;51.164;17.100;2022-08-25T15:30:39;22.80;;;6.80;;
39782;SDS011;25462;51.164;17.100;2022-08-25T15:35:46;21.00;;;5.90;;
39782;SDS011;25462;51.164;17.100;2022-08-25T15:41:11;23.50;;;5.70;;
39782;SDS011;25462;51.164;17.100;2022-08-25T15:46:16;17.10;;;5.40;;
39782;SDS011;25462;51.164;17.100;2022-08-25T15:51:21;23.30;;;5.90;;
39782;SDS011;25462;51.164;17.100;2022-08-25T15:56:24;23.60;;;5.40;;
39782;SDS011;25462;51.164;17.100;2022-08-25T16:01:29;20.00;;;6.60;;
39782;SDS011;25462;51.164;17.100;2022-08-25T16:06:39;27.10;;;6.40;;
39782;SDS011;25462;51.164;17.100;2022-08-25T16:11:51;18.50;;;6.40;;
39782;SDS011;25462;51.164;17.100;2022-08-25T16:17:19;21.50;;;5.90;;
39782;SDS011;25462;51.164;17.100;2022-08-25T16:22:29;26.60;;;6.80;;
39782;SDS011;25462;51.164;17.100;2022-08-25T16:27:33;21.10;;;5.40;;
39782;SDS011;25462;51.164;17.100;2022-08-25T16:32:39;27.50;;;6.60;;
39782;SDS011;25462;51.164;17.100;2022-08-25T16:37:42;25.00;;;5.50;;
39782;SDS011;25462;51.164;17.100;2022-08-25T16:42:44;22.30;;;5.30;;
39782;SDS011;25462;51.164;17.100;2022-08-25T16:47:47;21.60;;;5.60;;
39782;SDS011;25462;51.164;17.100;2022-08-25T16:52:50;19.10;;;5.00;;
39782;SDS011;25462;51.164;17.100;2022-08-25T16:58:11;20.30;;;6.00;;
39782;SDS011;25462;51.164;17.100;2022-08-25T17:03:14;26.10;;;5.50;;
39782;SDS011;25462;51.164;17.100;2022-08-25T17:08:20;25.50;;;5.10;;
39782;SDS011;25462;51.164;17.100;2022-08-25T17:13:33;18.30;;;7.20;;
39782;SDS011;25462;51.164;17.100;2022-08-25T17:18:40;21.80;;;6.30;;
39782;SDS011;25462;51.164;17.100;2022-08-25T17:23:43;24.20;;;7.70;;
39782;SDS011;25462;51.164;17.100;2022-08-25T17:28:45;22.90;;;5.70;;
39782;SDS011;25462;51.164;17.100;2022-08-25T17:33:47;28.00;;;7.20;;
39782;SDS011;25462;51.164;17.100;2022-08-25T17:38:50;20.20;;;5.80;;
39782;SDS011;25462;51.164;17.100;2022-08-25T17:43:52;28.20;;;6.50;;
39782;SDS011;25462;51.164;17.100;2022-08-25T17:48:54;23.90;;;6.40;;
39782;SDS011;25462;51.164;17.100;2022-08-25T17:53:57;20.70;;;6.50;;
39782;SDS011;25462;51.164;17.100;2022-08-25T17:58:59;22.50;;;7.50;;
39782;SDS011;25462;51.164;17.100;2022-08-25T18:04:12;25.60;;;8.60;;
39782;SDS011;25462;51.164;17.100;2022-08-25T18:09:20;24.50;;;8.70;;
39782;SDS011;25462;51.164;17.100;2022-08-25T18:14:29;21.80;;;7.10;;
39782;SDS011;25462;51.164;17.100;2022-08-25T18:19:36;22.60;;;7.20;;
39782;SDS011;25462;51.164;17.100;2022-08-25T18:24:42;26.20;;;6.90;;
39782;SDS011;25462;51.164;17.100;2022-08-25T18:29:45;17.90;;;5.60;;
39782;SDS011;25462;51.164;17.100;2022-08-25T18:34:58;24.50;;;5.90;;
39782;SDS011;25462;51.164;17.100;2022-08-25T18:40:08;20.60;;;5.90;;
39782;SDS011;25462;51.164;17.100;2022-08-25T18:45:28;24.80;;;6.90;;
39782;SDS011;25462;51.164;17.100;2022-08-25T18:50:37;32.20;;;7.50;;
39782;SDS011;25462;51.164;17.100;2022-08-25T18:55:44;18.40;;;4.80;;
39782;SDS011;25462;51.164;17.100;2022-08-25T19:00:55;21.70;;;5.70;;
39782;SDS011;25462;51.164;17.100;2022-08-25T19:06:03;23.30;;;4.60;;
39782;SDS011;25462;51.164;17.100;2022-08-25T19:11:12;32.10;;;6.20;;
39782;SDS011;25462;51.164;17.100;2022-08-25T19:16:31;34.20;;;7.40;;
39782;SDS011;25462;51.164;17.100;2022-08-25T19:21:35;20.60;;;5.80;;
39782;SDS011;25462;51.164;17.100;2022-08-25T19:26:42;19.60;;;6.60;;
39782;SDS011;25462;51.164;17.100;2022-08-25T19:31:59;20.50;;;7.20;;
39782;SDS011;25462;51.164;17.100;2022-08-25T19:37:04;20.00;;;5.70;;
39782;SDS011;25462;51.164;17.100;2022-08-25T19:42:11;57.40;;;7.00;;
39782;SDS011;25462;51.164;17.100;2022-08-25T19:47:40;20.20;;;6.50;;
39782;SDS011;25462;51.164;17.100;2022-08-25T19:53:03;20.10;;;6.30;;
39782;SDS011;25462;51.164;17.100;2022-08-25T19:58:06;31.40;;;7.90;;
39782;SDS011;25462;51.164;17.100;2022-08-25T20:03:12;27.00;;;6.80;;
39782;SDS011;25462;51.164;17.100;2022-08-25T20:08:15;20.70;;;7.00;;
39782;SDS011;25462;51.164;17.100;2022-08-25T20:13:30;25.40;;;7.00;;
39782;SDS011;25462;51.164;17.100;2022-08-25T20:18:34;27.30;;;7.00;;
39782;SDS011;25462;51.164;17.100;2022-08-25T20:23:36;25.30;;;6.90;;
39782;SDS011;25462;51.164;17.100;2022-08-25T20:28:57;25.50;;;8.00;;
39782;SDS011;25462;51.164;17.100;2022-08-25T20:34:03;30.70;;;6.60;;
39782;SDS011;25462;51.164;17.100;2022-08-25T20:39:22;27.80;;;7.20;;
39782;SDS011;25462;51.164;17.100;2022-08-25T20:44:34;24.20;;;7.50;;
39782;SDS011;25462;51.164;17.100;2022-08-25T20:49:43;23.80;;;6.80;;
39782;SDS011;25462;51.164;17.100;2022-08-25T20:54:46;32.40;;;7.30;;
39782;SDS011;25462;51.164;17.100;2022-08-25T20:59:52;22.60;;;7.00;;
39782;SDS011;25462;51.164;17.100;2022-08-25T21:04:57;23.10;;;7.00;;
39782;SDS011;25462;51.164;17.100;2022-08-25T21:10:04;22.20;;;7.60;;
39782;SDS011;25462;51.164;17.100;2022-08-25T21:15:16;27.50;;;7.60;;
39782;SDS011;25462;51.164;17.100;2022-08-25T21:20:21;24.70;;;6.90;;
39782;SDS011;25462;51.164;17.100;2022-08-25T21:25:27;22.30;;;6.40;;
39782;SDS011;25462;51.164;17.100;2022-08-25T21:30:34;26.00;;;11.80;;
39782;SDS011;25462;51.164;17.100;2022-08-25T21:35:49;20.60;;;5.90;;
39782;SDS011;25462;51.164;17.100;2022-08-25T21:40:55;15.50;;;5.70;;
39782;SDS011;25462;51.164;17.100;2022-08-25T21:46:00;29.90;;;7.20;;
39782;SDS011;25462;51.164;17.100;2022-08-25T21:51:12;18.50;;;7.10;;
39782;SDS011;25462;51.164;17.100;2022-08-25T21:56:21;15.60;;;7.40;;
39782;SDS011;25462;51.164;17.100;2022-08-25T22:01:27;30.80;;;10.00;;
39782;SDS011;25462;51.164;17.100;2022-08-25T22:06:32;26.20;;;7.30;;
39782;SDS011;25462;51.164;17.100;2022-08-25T22:12:01;14.90;;;6.30;;
39782;SDS011;25462;51.164;17.100;2022-08-25T22:17:06;15.60;;;5.90;;
39782;SDS011;25462;51.164;17.100;2022-08-25T22:22:16;18.00;;;5.50;;
39782;SDS011;25462;51.164;17.100;2022-08-25T22:27:21;16.20;;;6.30;;
39782;SDS011;25462;51.164;17.100;2022-08-25T22:32:24;29.50;;;8.10;;
39782;SDS011;25462;51.164;17.100;2022-08-25T22:37:29;23.50;;;7.40;;
39782;SDS011;25462;51.164;17.100;2022-08-25T22:42:36;24.20;;;7.40;;
39782;SDS011;25462;51.164;17.100;2022-08-25T22:47:43;17.30;;;7.20;;
39782;SDS011;25462;51.164;17.100;2022-08-25T22:52:52;19.60;;;7.90;;
39782;SDS011;25462;51.164;17.100;2022-08-25T22:57:54;20.90;;;8.60;;
39782;SDS011;25462;51.164;17.100;2022-08-25T23:02:57;21.80;;;8.30;;
39782;SDS011;25462;51.164;17.100;2022-08-25T23:07:59;18.80;;;8.00;;
39782;SDS011;25462;51.164;17.100;2022-08-25T23:13:01;23.90;;;9.80;;
39782;SDS011;25462;51.164;17.100;2022-08-25T23:18:08;23.20;;;9.00;;
39782;SDS011;25462;51.164;17.100;2022-08-25T23:23:16;20.50;;;7.50;;
39782;SDS011;25462;51.164;17.100;2022-08-25T23:28:19;20.90;;;7.30;;
39782;SDS011;25462;51.164;17.100;2022-08-25T23:33:22;12.40;;;5.80;;
39782;SDS011;25462;51.164;17.100;2022-08-25T23:38:25;21.90;;;8.00;;
39782;SDS011;25462;51.164;17.100;2022-08-25T23:43:29;24.10;;;8.30;;
39782;SDS011;25462;51.164;17.100;2022-08-25T23:48:31;21.00;;;9.30;;
39782;SDS011;25462;51.164;17.100;2022-08-25T23:53:34;22.30;;;9.70;;
39782;SDS011;25462;51.164;17.100;2022-08-25T23:58:37;16.20;;;7.30;;
